Time;durP1;ratioP1;P1;durP2;ratioP2;P2;SDS_P1;SDS_P2;PMS_P1;PMS_P2;Temp;Humidity;BMP_temperature;BMP_pressure;BME280_temperature;BME280_humidity;BME280_pressure;Samples;Min_cycle;Max_cycle;Signal;HPM_P1;HPM_P2
2024/01/30 00:01:07;;;;;;;;;;;;;;;;;;8455839;28;19919;-80
2024/01/30 00:05:23;;;;;;;;;;;;;;;;;;8452219;28;20409;-80
2024/01/30 00:09:25;;;;;;;;;;;;;;;;;;8465507;28;19974;-80
2024/01/30 00:13:27;;;;;;;;;;;;;;;;;;8440887;28;19920;-80
2024/01/30 00:17:30;;;;;;;;;;;;;;;;;;8460164;28;19973;-81
2024/01/30 00:21:32;;;;;;;;;;;;;;;;;;8436955;28;20692;-80
2024/01/30 00:25:34;;;;;;;;;;;;;;;;;;8431723;28;19924;-80
2024/01/30 00:29:36;;;;;;;;;;;;;;;;;;8442071;28;19959;-80
2024/01/30 00:33:39;;;;;;;;;;;;;;;;;;8454912;28;19973;-80
2024/01/30 00:37:41;;;;;;;;;;;;;;;;;;8456169;28;19920;-80
2024/01/30 00:41:43;;;;;;;;;;;;;;;;;;8454941;28;19927;-80
2024/01/30 00:45:45;;;;;;;;;;;;;;;;;;8441239;28;20456;-80
2024/01/30 00:49:49;;;;;;;;;;;;;;;;;;8444298;28;20380;-80
2024/01/30 00:53:51;;;;;;;;;;;;;;;;;;8431677;28;19920;-79
2024/01/30 00:57:53;;;;;;;;;;;;;;;;;;8446719;28;20011;-80
2024/01/30 01:01:55;;;;;;;;;;;;;;;;;;8427960;28;19930;-80
2024/01/30 01:05:58;;;;;;;;;;;;;;;;;;8410418;28;19921;-80
2024/01/30 01:10:00;;;;;;;;;;;;;;;;;;8397650;28;19927;-80
2024/01/30 01:14:01;;;;;;;;;;;;;;;;;;8425535;28;19920;-80
2024/01/30 01:18:04;;;;;;;;;;;;;;;;;;8413273;28;19920;-80
2024/01/30 01:22:08;;;;;;;;;;;;;;;;;;8421394;28;19952;-80
2024/01/30 01:26:10;;;;;;;;;;;;;;;;;;8426188;28;19956;-80
2024/01/30 01:30:18;;;;;;;;;;;;;;;;;;8408063;28;19924;-79
2024/01/30 01:34:20;;;;;;;;;;;;;;;;;;8403570;28;19920;-80
2024/01/30 01:38:23;;;;;;;;;;;;;;;;;;8403643;28;20406;-80
2024/01/30 01:42:25;;;;;;;;;;;;;;;;;;8385157;28;19948;-80
2024/01/30 01:46:27;;;;;;;;;;;;;;;;;;8402792;28;19920;-80
2024/01/30 01:50:29;;;;;;;;;;;;;;;;;;8402771;28;20308;-80
2024/01/30 01:54:32;;;;;;;;;;;;;;;;;;8402772;28;19920;-80
2024/01/30 01:58:37;;;;;;;;;;;;;;;;;;8402627;28;20015;-80
2024/01/30 02:02:39;;;;;;;;;;;;;;;;;;8428890;28;19927;-80
2024/01/30 02:06:44;;;;;;;;;;;;;;;;;;8436079;28;19949;-80
2024/01/30 02:10:47;;;;;;;;;;;;;;;;;;8418259;28;19928;-80
2024/01/30 02:14:49;;;;;;;;;;;;;;;;;;8435752;28;19942;-80
2024/01/30 02:18:51;;;;;;;;;;;;;;;;;;8435603;28;19919;-80
2024/01/30 02:23:13;;;;;;;;;;;;;;;;;;8435497;28;20384;-80
2024/01/30 02:27:16;;;;;;;;;;;;;;;;;;8435067;28;19981;-80
2024/01/30 02:31:18;;;;;;;;;;;;;;;;;;8435386;28;19920;-80
2024/01/30 02:35:20;;;;;;;;;;;;;;;;;;8435000;28;20345;-80
2024/01/30 02:39:22;;;;;;;;;;;;;;;;;;8434763;28;19920;-80
2024/01/30 02:43:25;;;;;;;;;;;;;;;;;;8434952;28;19920;-80
2024/01/30 02:47:27;;;;;;;;;;;;;;;;;;8434796;28;19923;-80
2024/01/30 02:51:29;;;;;;;;;;;;;;;;;;8434039;28;20002;-80
2024/01/30 02:55:31;;;;;;;;;;;;;;;;;;8433790;28;20281;-80
2024/01/30 02:59:43;;;;;;;;;;;;;;;;;;8432363;28;19946;-80
2024/01/30 03:03:45;;;;;;;;;;;;;;;;;;8399035;28;19920;-81
2024/01/30 03:07:46;;;;;;;;;;;;;;;;;;8398889;28;19924;-81
2024/01/30 03:11:48;;;;;;;;;;;;;;;;;;8398833;28;20404;-81
2024/01/30 03:15:52;;;;;;;;;;;;;;;;;;8398648;28;19924;-81
2024/01/30 03:19:53;;;;;;;;;;;;;;;;;;8397724;28;19921;-81
2024/01/30 03:23:55;;;;;;;;;;;;;;;;;;8397963;28;19920;-81
2024/01/30 03:27:57;;;;;;;;;;;;;;;;;;8398274;28;20303;-81
2024/01/30 03:32:00;;;;;;;;;;;;;;;;;;8398239;28;20245;-80
2024/01/30 03:36:03;;;;;;;;;;;;;;;;;;8396904;28;20438;-80
2024/01/30 03:40:06;;;;;;;;;;;;;;;;;;8398009;28;19926;-81
2024/01/30 03:44:08;;;;;;;;;;;;;;;;;;8398224;28;20368;-81
2024/01/30 03:48:10;;;;;;;;;;;;;;;;;;8396480;28;19926;-81
2024/01/30 03:52:12;;;;;;;;;;;;;;;;;;8397705;28;19920;-81
2024/01/30 03:56:14;;;;;;;;;;;;;;;;;;8397636;28;20411;-81
2024/01/30 04:00:16;;;;;;;;;;;;;;;;;;8365646;28;1044009;-81
2024/01/30 04:04:35;;;;;;;;;;;;;;;;;;8432255;28;19969;-81
2024/01/30 04:08:38;;;;;;;;;;;;;;;;;;8432635;28;19924;-81
2024/01/30 04:12:40;;;;;;;;;;;;;;;;;;8431977;28;20399;-80
2024/01/30 04:16:41;;;;;;;;;;;;;;;;;;8431923;28;19920;-80
2024/01/30 04:20:46;;;;;;;;;;;;;;;;;;8431668;28;20022;-80
2024/01/30 04:24:48;;;;;;;;;;;;;;;;;;8431732;28;19924;-80
2024/01/30 04:28:49;;;;;;;;;;;;;;;;;;8431271;28;20018;-81
2024/01/30 04:32:51;;;;;;;;;;;;;;;;;;8431445;28;20292;-81
2024/01/30 04:37:07;;;;;;;;;;;;;;;;;;8431389;28;19920;-81
2024/01/30 04:41:09;;;;;;;;;;;;;;;;;;8431267;28;20007;-80
2024/01/30 04:45:11;;;;;;;;;;;;;;;;;;8432082;28;20319;-81
2024/01/30 04:49:13;;;;;;;;;;;;;;;;;;8430938;28;20018;-80
2024/01/30 04:53:16;;;;;;;;;;;;;;;;;;8431103;28;20315;-81
2024/01/30 04:57:18;;;;;;;;;;;;;;;;;;8430936;28;20542;-81
2024/01/30 05:01:20;;;;;;;;;;;;;;;;;;8430724;28;19973;-80
2024/01/30 05:05:22;;;;;;;;;;;;;;;;;;8431038;28;19927;-81
2024/01/30 05:09:25;;;;;;;;;;;;;;;;;;8430846;28;19920;-81
2024/01/30 05:13:27;;;;;;;;;;;;;;;;;;8430857;28;19920;-81
2024/01/30 05:17:29;;;;;;;;;;;;;;;;;;8430655;28;20462;-81
2024/01/30 05:21:31;;;;;;;;;;;;;;;;;;8430435;28;20392;-80
2024/01/30 05:25:34;;;;;;;;;;;;;;;;;;8430569;28;19923;-81
2024/01/30 05:29:36;;;;;;;;;;;;;;;;;;8430550;28;20391;-80
2024/01/30 05:34:10;;;;;;;;;;;;;;;;;;8430514;28;19947;-81
2024/01/30 05:38:12;;;;;;;;;;;;;;;;;;8430713;28;19920;-80
2024/01/30 05:42:16;;;;;;;;;;;;;;;;;;8430246;28;19995;-81
2024/01/30 05:46:18;;;;;;;;;;;;;;;;;;8430070;28;19920;-81
2024/01/30 05:50:23;;;;;;;;;;;;;;;;;;8429993;28;19959;-81
2024/01/30 05:54:25;;;;;;;;;;;;;;;;;;8430229;28;20008;-81
2024/01/30 05:58:28;;;;;;;;;;;;;;;;;;8430037;28;19920;-81
2024/01/30 06:02:30;;;;;;;;;;;;;;;;;;8435267;28;20204;-81
2024/01/30 06:06:32;;;;;;;;;;;;;;;;;;8435098;28;20010;-81
2024/01/30 06:10:34;;;;;;;;;;;;;;;;;;8435719;28;20380;-81
2024/01/30 06:14:37;;;;;;;;;;;;;;;;;;8435789;28;20380;-81
2024/01/30 06:18:39;;;;;;;;;;;;;;;;;;8435594;28;20491;-81
2024/01/30 06:22:40;;;;;;;;;;;;;;;;;;8417013;28;19920;-82
2024/01/30 06:26:42;;;;;;;;;;;;;;;;;;8435135;28;20014;-81
2024/01/30 06:30:46;;;;;;;;;;;;;;;;;;8435243;28;19966;-81
2024/01/30 06:34:48;;;;;;;;;;;;;;;;;;8434027;28;19949;-81
2024/01/30 06:38:50;;;;;;;;;;;;;;;;;;8433127;28;20006;-81
2024/01/30 06:42:51;;;;;;;;;;;;;;;;;;8433645;28;19924;-81
2024/01/30 06:46:55;;;;;;;;;;;;;;;;;;8434243;28;19956;-81
2024/01/30 06:50:58;;;;;;;;;;;;;;;;;;8432960;28;19950;-81
2024/01/30 06:54:59;;;;;;;;;;;;;;;;;;8433516;28;19924;-81
2024/01/30 06:59:01;;;;;;;;;;;;;;;;;;8434386;28;19943;-81
2024/01/30 07:07:57;;;;;;;;;;;;;;;;;;8434293;28;20345;-81
2024/01/30 07:11:59;;;;;;;;;;;;;;;;;;8432786;28;19931;-82
2024/01/30 07:16:01;;;;;;;;;;;;;;;;;;8433357;28;20022;-83
2024/01/30 07:20:04;;;;;;;;;;;;;;;;;;8432878;28;19924;-83
2024/01/30 07:24:07;;;;;;;;;;;;;;;;;;8433282;28;19927;-82
2024/01/30 07:28:09;;;;;;;;;;;;;;;;;;8433439;28;20388;-82
2024/01/30 07:32:12;;;;;;;;;;;;;;;;;;8433224;28;19927;-82
2024/01/30 07:36:13;;;;;;;;;;;;;;;;;;8433397;28;20296;-82
2024/01/30 07:40:17;;;;;;;;;;;;;;;;;;8433178;28;19930;-83
2024/01/30 07:44:19;;;;;;;;;;;;;;;;;;8432950;28;19923;-84
2024/01/30 07:53:04;;;;;;;;;;;;;;;;;;8432664;28;19920;-83
2024/01/30 07:57:36;;;;;;;;;;;;;;;;;;8414520;28;19943;-83
2024/01/30 08:01:40;;;;;;;;;;;;;;;;;;8432323;28;19920;-84
2024/01/30 08:05:42;;;;;;;;;;;;;;;;;;8432279;28;19920;-84
2024/01/30 08:09:43;;;;;;;;;;;;;;;;;;8432131;28;19979;-83
2024/01/30 08:13:45;;;;;;;;;;;;;;;;;;8431928;28;19920;-83
2024/01/30 08:17:49;;;;;;;;;;;;;;;;;;8431917;28;19965;-84
2024/01/30 08:21:50;;;;;;;;;;;;;;;;;;8431521;28;19978;-84
2024/01/30 08:25:52;;;;;;;;;;;;;;;;;;8431632;28;19975;-84
2024/01/30 08:29:54;;;;;;;;;;;;;;;;;;8431648;28;19970;-84
2024/01/30 08:33:58;;;;;;;;;;;;;;;;;;8431752;28;19920;-85
2024/01/30 08:38:00;;;;;;;;;;;;;;;;;;8431464;28;19931;-85
2024/01/30 08:42:02;;;;;;;;;;;;;;;;;;8429706;28;20391;-84
2024/01/30 08:46:05;;;;;;;;;;;;;;;;;;8430164;28;19920;-84
2024/01/30 08:50:08;;;;;;;;;;;;;;;;;;8430494;28;20430;-83
2024/01/30 08:54:12;;;;;;;;;;;;;;;;;;8430382;28;20463;-84
2024/01/30 08:58:15;;;;;;;;;;;;;;;;;;8430534;28;19920;-87
2024/01/30 09:02:18;;;;;;;;;;;;;;;;;;8430097;28;20295;-85
2024/01/30 09:06:21;;;;;;;;;;;;;;;;;;8429794;28;19924;-82
2024/01/30 09:10:23;;;;;;;;;;;;;;;;;;8430334;28;20434;-84
2024/01/30 09:14:24;;;;;;;;;;;;;;;;;;8430125;28;20403;-85
2024/01/30 09:18:26;;;;;;;;;;;;;;;;;;8429798;28;20281;-84
2024/01/30 09:22:30;;;;;;;;;;;;;;;;;;8430491;28;19924;-84
2024/01/30 09:26:31;;;;;;;;;;;;;;;;;;8430184;28;19927;-84
2024/01/30 09:30:33;;;;;;;;;;;;;;;;;;8428785;28;19920;-82
2024/01/30 09:34:35;;;;;;;;;;;;;;;;;;8431109;28;19920;-81
2024/01/30 09:39:14;;;;;;;;;;;;;;;;;;8436940;28;19923;-81
2024/01/30 09:43:19;;;;;;;;;;;;;;;;;;8436783;28;19924;-83
2024/01/30 09:47:21;;;;;;;;;;;;;;;;;;8436576;28;19998;-83
2024/01/30 09:51:23;;;;;;;;;;;;;;;;;;8436071;28;19924;-83
2024/01/30 09:55:26;;;;;;;;;;;;;;;;;;8436045;28;19993;-82
2024/01/30 09:59:29;;;;;;;;;;;;;;;;;;8436064;28;20417;-81
2024/01/30 10:03:31;;;;;;;;;;;;;;;;;;8436164;28;19928;-83
2024/01/30 10:07:34;;;;;;;;;;;;;;;;;;8436094;28;19998;-83
2024/01/30 10:11:58;;;;;;;;;;;;;;;;;;8435901;28;19927;-82
2024/01/30 10:16:02;;;;;;;;;;;;;;;;;;8435566;28;19926;-83
2024/01/30 10:20:05;;;;;;;;;;;;;;;;;;8435952;28;19920;-83
2024/01/30 10:24:08;;;;;;;;;;;;;;;;;;8434798;28;20384;-84
2024/01/30 10:28:10;;;;;;;;;;;;;;;;;;8434963;28;19927;-83
2024/01/30 10:32:13;;;;;;;;;;;;;;;;;;8435063;28;19931;-82
2024/01/30 10:36:16;;;;;;;;;;;;;;;;;;8435231;28;19920;-83
2024/01/30 10:40:19;;;;;;;;;;;;;;;;;;8434612;28;19959;-84
2024/01/30 10:44:22;;;;;;;;;;;;;;;;;;8434332;28;19927;-83
2024/01/30 10:48:28;;;;;;;;;;;;;;;;;;8434123;28;19920;-80
2024/01/30 10:52:30;;;;;;;;;;;;;;;;;;8434287;28;19927;-83
2024/01/30 10:56:33;;;;;;;;;;;;;;;;;;8432577;28;20073;-82
2024/01/30 11:00:34;;;;;;;;;;;;;;;;;;8414993;28;20434;-83
2024/01/30 11:04:38;;;;;;;;;;;;;;;;;;8432981;28;19927;-83
2024/01/30 11:08:40;;;;;;;;;;;;;;;;;;8432241;28;19920;-83
2024/01/30 11:12:43;;;;;;;;;;;;;;;;;;8432449;28;19935;-85
2024/01/30 11:16:45;;;;;;;;;;;;;;;;;;8432114;28;19959;-84
2024/01/30 11:20:49;;;;;;;;;;;;;;;;;;8430746;28;19920;-83
2024/01/30 11:24:52;;;;;;;;;;;;;;;;;;8431910;28;19920;-84
2024/01/30 11:28:54;;;;;;;;;;;;;;;;;;8430921;28;20300;-84
2024/01/30 11:33:04;;;;;;;;;;;;;;;;;;8431033;28;20296;-84
2024/01/30 11:37:10;;;;;;;;;;;;;;;;;;8429073;28;19927;-83
2024/01/30 11:41:12;;;;;;;;;;;;;;;;;;8428880;28;20018;-81
2024/01/30 11:45:14;;;;;;;;;;;;;;;;;;8431397;28;20303;-82
2024/01/30 11:49:17;;;;;;;;;;;;;;;;;;8431315;28;19928;-86
2024/01/30 11:53:20;;;;;;;;;;;;;;;;;;8430764;28;19927;-84
2024/01/30 11:57:23;;;;;;;;;;;;;;;;;;8427274;28;20396;-84
2024/01/30 12:01:25;;;;;;;;;;;;;;;;;;8423082;28;20004;-84
2024/01/30 12:05:27;;;;;;;;;;;;;;;;;;8425677;28;19930;-84
2024/01/30 12:09:30;;;;;;;;;;;;;;;;;;8430071;28;19920;-84
2024/01/30 12:13:57;;;;;;;;;;;;;;;;;;8413110;28;19959;-84
2024/01/30 12:18:06;;;;;;;;;;;;;;;;;;8431486;28;19973;-84
2024/01/30 12:22:07;;;;;;;;;;;;;;;;;;8431877;28;19924;-84
2024/01/30 12:26:16;;;;;;;;;;;;;;;;;;8430995;28;19969;-84
2024/01/30 12:30:20;;;;;;;;;;;;;;;;;;8430941;28;19924;-84
2024/01/30 12:34:21;;;;;;;;;;;;;;;;;;8430918;28;20379;-84
2024/01/30 12:38:24;;;;;;;;;;;;;;;;;;8430888;28;20362;-84
2024/01/30 12:42:27;;;;;;;;;;;;;;;;;;8430586;28;19924;-84
2024/01/30 12:46:30;;;;;;;;;;;;;;;;;;8430405;28;19920;-84
2024/01/30 12:50:32;;;;;;;;;;;;;;;;;;8429953;28;19972;-83
2024/01/30 12:54:34;;;;;;;;;;;;;;;;;;8423736;28;19946;-84
2024/01/30 12:58:37;;;;;;;;;;;;;;;;;;8427244;28;20006;-84
2024/01/30 13:02:39;;;;;;;;;;;;;;;;;;8429652;28;19920;-84
2024/01/30 13:06:41;;;;;;;;;;;;;;;;;;8429759;28;19961;-84
2024/01/30 13:10:43;;;;;;;;;;;;;;;;;;8434889;28;19920;-84
2024/01/30 13:14:46;;;;;;;;;;;;;;;;;;8437240;28;20437;-84
2024/01/30 13:18:55;;;;;;;;;;;;;;;;;;8436900;28;19927;-84
2024/01/30 13:22:57;;;;;;;;;;;;;;;;;;8436738;28;19920;-83
2024/01/30 13:26:59;;;;;;;;;;;;;;;;;;8436546;28;20577;-84
2024/01/30 13:31:09;;;;;;;;;;;;;;;;;;8436385;28;19927;-84
2024/01/30 13:35:11;;;;;;;;;;;;;;;;;;8436382;28;20433;-84
2024/01/30 13:39:13;;;;;;;;;;;;;;;;;;8436372;28;19963;-84
2024/01/30 13:43:16;;;;;;;;;;;;;;;;;;8436211;28;19920;-84
2024/01/30 13:47:21;;;;;;;;;;;;;;;;;;8435451;28;20001;-84
2024/01/30 13:51:23;;;;;;;;;;;;;;;;;;8435187;28;19988;-84
2024/01/30 13:55:25;;;;;;;;;;;;;;;;;;8435915;28;20277;-83
2024/01/30 13:59:26;;;;;;;;;;;;;;;;;;8435369;28;20026;-83
2024/01/30 14:03:35;;;;;;;;;;;;;;;;;;8435832;28;20007;-84
2024/01/30 14:07:39;;;;;;;;;;;;;;;;;;8434813;28;19962;-83
2024/01/30 14:11:58;;;;;;;;;;;;;;;;;;8435082;28;19951;-84
2024/01/30 14:16:00;;;;;;;;;;;;;;;;;;8433590;28;19920;-83
2024/01/30 14:20:22;;;;;;;;;;;;;;;;;;8433574;28;19920;-84
2024/01/30 14:24:25;;;;;;;;;;;;;;;;;;8434326;28;19920;-83
2024/01/30 14:28:27;;;;;;;;;;;;;;;;;;8433856;28;19923;-83
2024/01/30 14:32:29;;;;;;;;;;;;;;;;;;8431964;28;19923;-82
2024/01/30 14:36:46;;;;;;;;;;;;;;;;;;8431341;28;20384;-82
2024/01/30 14:41:15;;;;;;;;;;;;;;;;;;8434018;28;19920;-82
2024/01/30 14:45:19;;;;;;;;;;;;;;;;;;8433828;28;19926;-82
2024/01/30 14:49:20;;;;;;;;;;;;;;;;;;8433737;28;20026;-83
2024/01/30 14:53:35;;;;;;;;;;;;;;;;;;8433434;28;19924;-82
2024/01/30 14:57:37;;;;;;;;;;;;;;;;;;8433676;28;20010;-83
2024/01/30 15:01:41;;;;;;;;;;;;;;;;;;8433026;28;20380;-82
2024/01/30 15:05:43;;;;;;;;;;;;;;;;;;8433617;28;19966;-82
2024/01/30 15:09:44;;;;;;;;;;;;;;;;;;8432656;28;20019;-83
2024/01/30 15:13:46;;;;;;;;;;;;;;;;;;8432680;28;19920;-82
2024/01/30 15:17:50;;;;;;;;;;;;;;;;;;8432813;28;19920;-82
2024/01/30 15:21:54;;;;;;;;;;;;;;;;;;8414465;28;19927;-82
2024/01/30 15:25:56;;;;;;;;;;;;;;;;;;8431722;28;19930;-83
2024/01/30 15:29:58;;;;;;;;;;;;;;;;;;8430547;28;20346;-82
2024/01/30 15:34:02;;;;;;;;;;;;;;;;;;8430367;28;19927;-83
2024/01/30 15:38:08;;;;;;;;;;;;;;;;;;8432030;28;20427;-83
2024/01/30 15:42:09;;;;;;;;;;;;;;;;;;8431421;28;20284;-83
2024/01/30 15:46:11;;;;;;;;;;;;;;;;;;8431991;28;19926;-83
2024/01/30 15:50:14;;;;;;;;;;;;;;;;;;8432059;28;20316;-83
2024/01/30 15:54:17;;;;;;;;;;;;;;;;;;8431425;28;19931;-83
2024/01/30 15:58:19;;;;;;;;;;;;;;;;;;8431589;28;19926;-83
2024/01/30 16:02:21;;;;;;;;;;;;;;;;;;8431145;28;19969;-82
2024/01/30 16:06:24;;;;;;;;;;;;;;;;;;8430998;28;19931;-83
2024/01/30 16:10:26;;;;;;;;;;;;;;;;;;8431086;28;19920;-83
2024/01/30 16:14:28;;;;;;;;;;;;;;;;;;8431287;28;19920;-83
2024/01/30 16:18:31;;;;;;;;;;;;;;;;;;8431219;28;20294;-84
2024/01/30 16:22:35;;;;;;;;;;;;;;;;;;8431616;28;20010;-83
2024/01/30 16:26:36;;;;;;;;;;;;;;;;;;8430950;28;19955;-83
2024/01/30 16:30:46;;;;;;;;;;;;;;;;;;8430788;28;19920;-83
2024/01/30 16:34:48;;;;;;;;;;;;;;;;;;8431117;28;19920;-84
2024/01/30 16:38:51;;;;;;;;;;;;;;;;;;8430109;28;19920;-84
2024/01/30 16:42:53;;;;;;;;;;;;;;;;;;8429203;28;19920;-83
2024/01/30 16:46:55;;;;;;;;;;;;;;;;;;8430784;28;19943;-83
2024/01/30 16:50:57;;;;;;;;;;;;;;;;;;8412206;28;20361;-83
2024/01/30 16:55:00;;;;;;;;;;;;;;;;;;8430413;28;20193;-83
2024/01/30 16:59:05;;;;;;;;;;;;;;;;;;8429930;28;20248;-83
2024/01/30 17:03:43;;;;;;;;;;;;;;;;;;8429374;28;20081;-83
2024/01/30 17:07:46;;;;;;;;;;;;;;;;;;8429972;28;19956;-83
2024/01/30 17:11:49;;;;;;;;;;;;;;;;;;8429433;28;20334;-83
2024/01/30 17:15:51;;;;;;;;;;;;;;;;;;8429534;28;19946;-83
2024/01/30 17:19:53;;;;;;;;;;;;;;;;;;8429324;28;20019;-83
2024/01/30 17:23:54;;;;;;;;;;;;;;;;;;8411586;28;20119;-83
2024/01/30 17:27:57;;;;;;;;;;;;;;;;;;8427707;28;19959;-83
2024/01/30 17:31:59;;;;;;;;;;;;;;;;;;8426195;28;19928;-83
2024/01/30 17:36:01;;;;;;;;;;;;;;;;;;8428171;28;19927;-83
2024/01/30 17:40:03;;;;;;;;;;;;;;;;;;8429156;28;19920;-82
2024/01/30 17:44:07;;;;;;;;;;;;;;;;;;8428496;28;19919;-83
2024/01/30 17:48:09;;;;;;;;;;;;;;;;;;8429543;28;20295;-83
2024/01/30 17:52:11;;;;;;;;;;;;;;;;;;8429423;28;19966;-82
2024/01/30 17:56:13;;;;;;;;;;;;;;;;;;8431706;28;20007;-83
2024/01/30 18:00:16;;;;;;;;;;;;;;;;;;8434905;28;19927;-83
2024/01/30 18:04:18;;;;;;;;;;;;;;;;;;8435418;28;19920;-83
2024/01/30 18:08:46;;;;;;;;;;;;;;;;;;8435338;28;19920;-83
2024/01/30 18:12:48;;;;;;;;;;;;;;;;;;8434973;28;19943;-83
2024/01/30 18:16:52;;;;;;;;;;;;;;;;;;8435496;28;19920;-83
2024/01/30 18:20:53;;;;;;;;;;;;;;;;;;8434591;28;19919;-83
2024/01/30 18:24:55;;;;;;;;;;;;;;;;;;8434824;28;19924;-83
2024/01/30 18:28:57;;;;;;;;;;;;;;;;;;8432704;28;20027;-82
2024/01/30 18:33:02;;;;;;;;;;;;;;;;;;8431473;28;20061;-81
2024/01/30 18:37:06;;;;;;;;;;;;;;;;;;8434177;28;19920;-81
2024/01/30 18:41:09;;;;;;;;;;;;;;;;;;8434940;28;20299;-81
2024/01/30 18:45:38;;;;;;;;;;;;;;;;;;8434736;28;19920;-81
2024/01/30 18:49:42;;;;;;;;;;;;;;;;;;8434662;28;19965;-81
2024/01/30 18:54:05;;;;;;;;;;;;;;;;;;8435080;28;20045;-81
2024/01/30 18:58:07;;;;;;;;;;;;;;;;;;8434553;28;19920;-81
2024/01/30 19:02:09;;;;;;;;;;;;;;;;;;8433875;28;19927;-81
2024/01/30 19:06:13;;;;;;;;;;;;;;;;;;8433090;28;20393;-81
2024/01/30 19:10:16;;;;;;;;;;;;;;;;;;8432678;28;20403;-81
2024/01/30 19:14:18;;;;;;;;;;;;;;;;;;8434610;28;19920;-81
2024/01/30 19:18:20;;;;;;;;;;;;;;;;;;8433960;28;19920;-81
2024/01/30 19:22:42;;;;;;;;;;;;;;;;;;8433308;28;19967;-81
2024/01/30 19:27:01;;;;;;;;;;;;;;;;;;8433471;28;19927;-81
2024/01/30 19:31:04;;;;;;;;;;;;;;;;;;8433305;28;19934;-81
2024/01/30 19:35:07;;;;;;;;;;;;;;;;;;8432971;28;20376;-81
2024/01/30 19:39:13;;;;;;;;;;;;;;;;;;8433794;28;19920;-81
2024/01/30 19:43:14;;;;;;;;;;;;;;;;;;8432996;28;20018;-82
2024/01/30 19:47:18;;;;;;;;;;;;;;;;;;8432825;28;20347;-82
2024/01/30 19:51:20;;;;;;;;;;;;;;;;;;8432544;28;20032;-82
2024/01/30 19:55:22;;;;;;;;;;;;;;;;;;8432851;28;20344;-82
2024/01/30 19:59:25;;;;;;;;;;;;;;;;;;8432519;28;20027;-82
2024/01/30 20:03:28;;;;;;;;;;;;;;;;;;8432088;28;19927;-82
2024/01/30 20:07:30;;;;;;;;;;;;;;;;;;8432313;28;19920;-82
2024/01/30 20:11:32;;;;;;;;;;;;;;;;;;8432059;28;20273;-82
2024/01/30 20:15:34;;;;;;;;;;;;;;;;;;8432075;28;19920;-82
2024/01/30 20:19:37;;;;;;;;;;;;;;;;;;8430617;28;19924;-82
2024/01/30 20:23:40;;;;;;;;;;;;;;;;;;8431469;28;19920;-82
2024/01/30 20:27:42;;;;;;;;;;;;;;;;;;8431668;28;19959;-82
2024/01/30 20:31:45;;;;;;;;;;;;;;;;;;8431540;28;20026;-81
2024/01/30 20:35:48;;;;;;;;;;;;;;;;;;8431573;28;19920;-82
2024/01/30 20:39:50;;;;;;;;;;;;;;;;;;8431382;28;19920;-81
2024/01/30 20:43:52;;;;;;;;;;;;;;;;;;8431234;28;20019;-82
2024/01/30 20:47:55;;;;;;;;;;;;;;;;;;8431113;28;20018;-81
2024/01/30 20:51:59;;;;;;;;;;;;;;;;;;8431111;28;19924;-82
2024/01/30 20:56:01;;;;;;;;;;;;;;;;;;8431045;28;19920;-82
2024/01/30 21:00:04;;;;;;;;;;;;;;;;;;8413044;28;20069;-83
2024/01/30 21:04:06;;;;;;;;;;;;;;;;;;8430863;28;19920;-83
2024/01/30 21:08:22;;;;;;;;;;;;;;;;;;8430867;28;19920;-82
2024/01/30 21:12:24;;;;;;;;;;;;;;;;;;8430421;28;19980;-82
2024/01/30 21:16:26;;;;;;;;;;;;;;;;;;8413174;28;20364;-82
2024/01/30 21:20:28;;;;;;;;;;;;;;;;;;8430326;28;19927;-83
2024/01/30 21:24:31;;;;;;;;;;;;;;;;;;8429938;28;20392;-82
2024/01/30 21:28:34;;;;;;;;;;;;;;;;;;8429590;28;19920;-82
2024/01/30 21:32:37;;;;;;;;;;;;;;;;;;8434900;28;19931;-82
2024/01/30 21:36:39;;;;;;;;;;;;;;;;;;8437029;28;20372;-82
2024/01/30 21:40:43;;;;;;;;;;;;;;;;;;8436575;28;20376;-82
2024/01/30 21:44:45;;;;;;;;;;;;;;;;;;8418542;28;19927;-82
2024/01/30 21:48:46;;;;;;;;;;;;;;;;;;8436716;28;19974;-82
2024/01/30 21:52:48;;;;;;;;;;;;;;;;;;8436441;28;20014;-82
2024/01/30 21:56:51;;;;;;;;;;;;;;;;;;8436254;28;20006;-82
2024/01/30 22:00:53;;;;;;;;;;;;;;;;;;8436211;28;20002;-82
2024/01/30 22:04:55;;;;;;;;;;;;;;;;;;8436135;28;20380;-80
2024/01/30 22:08:57;;;;;;;;;;;;;;;;;;8436092;28;19923;-82
2024/01/30 22:13:00;;;;;;;;;;;;;;;;;;8435868;28;19920;-82
2024/01/30 22:17:03;;;;;;;;;;;;;;;;;;8435742;28;20281;-82
2024/01/30 22:21:07;;;;;;;;;;;;;;;;;;8435774;28;20398;-82
2024/01/30 22:25:09;;;;;;;;;;;;;;;;;;8435694;28;19927;-82
2024/01/30 22:29:13;;;;;;;;;;;;;;;;;;8435630;28;19920;-82
2024/01/30 22:33:15;;;;;;;;;;;;;;;;;;8435387;28;20388;-82
2024/01/30 22:37:16;;;;;;;;;;;;;;;;;;8417541;28;19970;-81
2024/01/30 22:41:21;;;;;;;;;;;;;;;;;;8434614;28;20438;-81
2024/01/30 22:45:25;;;;;;;;;;;;;;;;;;8435026;28;20303;-81
2024/01/30 22:49:27;;;;;;;;;;;;;;;;;;8435036;28;19919;-81
2024/01/30 22:58:14;;;;;;;;;;;;;;;;;;8434609;28;20022;-82
2024/01/30 23:02:18;;;;;;;;;;;;;;;;;;8434511;28;19943;-82
2024/01/30 23:06:20;;;;;;;;;;;;;;;;;;8434399;28;20311;-82
2024/01/30 23:10:22;;;;;;;;;;;;;;;;;;8433449;28;19920;-82
2024/01/30 23:14:23;;;;;;;;;;;;;;;;;;8433810;28;20433;-82
2024/01/30 23:18:27;;;;;;;;;;;;;;;;;;8434104;28;19927;-82
2024/01/30 23:22:29;;;;;;;;;;;;;;;;;;8433966;28;19920;-82
2024/01/30 23:26:31;;;;;;;;;;;;;;;;;;8433865;28;20281;-82
2024/01/30 23:30:32;;;;;;;;;;;;;;;;;;8433448;28;19920;-82
2024/01/30 23:34:36;;;;;;;;;;;;;;;;;;8433787;28;20438;-82
2024/01/30 23:38:38;;;;;;;;;;;;;;;;;;8433243;28;19924;-82
2024/01/30 23:42:40;;;;;;;;;;;;;;;;;;8433329;28;20025;-82
2024/01/30 23:46:42;;;;;;;;;;;;;;;;;;8432986;28;19967;-82
2024/01/30 23:50:45;;;;;;;;;;;;;;;;;;8432904;28;19966;-82
2024/01/30 23:54:47;;;;;;;;;;;;;;;;;;8431948;28;20019;-82
2024/01/30 23:58:49;;;;;;;;;;;;;;;;;;8432766;28;20475;-82
